createdAt,value
2018-04-16T00:02:00.092Z,83.80
2018-04-16T00:04:27.036Z,83.50
2018-04-16T00:06:53.568Z,83.50
2018-04-16T00:09:20.144Z,83.90
2018-04-16T00:11:47.084Z,83.80
2018-04-16T00:14:13.623Z,83.80
2018-04-16T00:16:40.243Z,83.90
2018-04-16T00:19:06.856Z,83.10
2018-04-16T00:21:33.386Z,84.10
2018-04-16T00:24:00.344Z,83.30
2018-04-16T00:26:27.324Z,83.40
2018-04-16T00:28:53.927Z,83.40
2018-04-16T00:31:20.535Z,83.40
2018-04-16T00:33:52.980Z,83.10
2018-04-16T00:36:25.872Z,83.40
2018-04-16T00:38:58.864Z,83.10
2018-04-16T00:41:31.764Z,83.30
2018-04-16T00:44:04.744Z,83.30
2018-04-16T00:46:37.360Z,83.30
2018-04-16T00:49:10.024Z,82.80
2018-04-16T00:51:42.648Z,82.30
2018-04-16T00:54:22.659Z,83.00
2018-04-16T00:56:55.377Z,83.00
2018-04-16T00:59:28.068Z,82.60
2018-04-16T01:02:00.809Z,83.10
2018-04-16T01:04:33.380Z,83.70
2018-04-16T01:07:06.012Z,83.40
2018-04-16T01:09:38.564Z,83.90
2018-04-16T01:12:11.296Z,83.70
2018-04-16T01:14:43.843Z,84.00
2018-04-16T01:17:16.384Z,84.30
2018-04-16T01:19:48.895Z,83.60
2018-04-16T01:22:21.788Z,83.40
2018-04-16T01:24:54.437Z,83.40
2018-04-16T01:27:26.919Z,83.20
2018-04-16T01:29:59.664Z,83.40
2018-04-16T01:32:32.507Z,83.20
2018-04-16T01:35:05.000Z,83.20
2018-04-16T01:37:44.664Z,83.30
2018-04-16T01:40:17.379Z,83.50
2018-04-16T01:42:49.947Z,83.70
2018-04-16T01:45:22.412Z,83.60
2018-04-16T01:47:54.880Z,83.70
2018-04-16T01:50:27.499Z,83.70
2018-04-16T01:53:00.013Z,84.00
2018-04-16T01:55:32.502Z,83.90
2018-04-16T01:58:05.021Z,84.20
2018-04-16T02:00:38.041Z,84.40
2018-04-16T02:03:10.689Z,84.40
2018-04-16T02:05:43.240Z,84.20
2018-04-16T02:08:15.883Z,84.50
2018-04-16T02:10:48.828Z,84.70
2018-04-16T02:13:21.364Z,84.70
2018-04-16T02:15:54.332Z,84.40
2018-04-16T02:21:27.916Z,84.80
2018-04-16T02:24:00.912Z,85.40
2018-04-16T02:26:33.844Z,84.90
2018-04-16T02:29:06.493Z,84.90
2018-04-16T02:31:39.456Z,84.70
2018-04-16T02:34:12.272Z,84.70
2018-04-16T02:36:44.764Z,85.10
2018-04-16T02:39:17.361Z,85.30
2018-04-16T02:41:50.296Z,85.40
2018-04-16T02:44:22.848Z,85.40
2018-04-16T02:46:55.740Z,85.60
2018-04-16T02:49:28.673Z,85.20
2018-04-16T02:52:01.085Z,85.30
2018-04-16T02:54:33.724Z,85.30
2018-04-16T02:57:06.600Z,85.00
2018-04-16T02:59:39.284Z,85.00
2018-04-16T03:02:11.858Z,84.50
2018-04-16T03:04:44.319Z,85.10
2018-04-16T03:07:17.040Z,84.80
2018-04-16T03:09:49.732Z,84.60
2018-04-16T03:12:22.294Z,84.40
2018-04-16T03:14:54.783Z,84.20
2018-04-16T03:17:27.428Z,84.40
2018-04-16T03:20:00.444Z,84.60
2018-04-16T03:22:33.041Z,84.60
2018-04-16T03:25:05.549Z,84.80
2018-04-16T03:27:38.192Z,84.20
2018-04-16T03:30:10.933Z,84.40
2018-04-16T03:32:43.572Z,84.40
2018-04-16T03:35:16.113Z,85.40
2018-04-16T03:37:48.793Z,84.60
2018-04-16T03:40:21.480Z,84.90
2018-04-16T03:42:54.017Z,84.70
2018-04-16T03:45:26.656Z,85.50
2018-04-16T03:47:59.323Z,85.70
2018-04-16T03:50:32.215Z,85.60
2018-04-16T03:53:05.080Z,85.80
2018-04-16T03:55:37.596Z,85.90
2018-04-16T03:58:04.168Z,86.30
2018-04-16T04:00:30.708Z,86.30
2018-04-16T04:02:57.640Z,86.90
2018-04-16T04:05:24.208Z,86.80
2018-04-16T04:07:51.121Z,87.00
2018-04-16T04:10:17.680Z,87.00
2018-04-16T04:12:44.287Z,86.90
2018-04-16T04:15:10.867Z,87.40
2018-04-16T04:17:37.429Z,87.20
2018-04-16T04:20:04.036Z,87.50
2018-04-16T04:22:42.815Z,87.20
2018-04-16T04:25:21.379Z,87.00
2018-04-16T04:28:00.120Z,87.30
2018-04-16T04:30:33.436Z,87.70
2018-04-16T04:33:00.011Z,88.10
2018-04-16T04:35:26.584Z,88.60
2018-04-16T04:37:53.112Z,88.90
2018-04-16T04:40:19.675Z,89.40
2018-04-16T04:42:46.288Z,89.10
2018-04-16T04:45:12.862Z,89.60
2018-04-16T04:47:39.411Z,89.70
2018-04-16T04:50:05.976Z,90.30
2018-04-16T04:52:32.880Z,91.20
2018-04-16T04:54:59.438Z,91.20
2018-04-16T04:57:26.020Z,91.40
2018-04-16T04:59:52.544Z,91.70
2018-04-16T05:02:19.128Z,91.40
2018-04-16T05:04:46.065Z,91.20
2018-04-16T05:07:12.600Z,91.20
2018-04-16T05:09:39.181Z,91.00
2018-04-16T05:12:06.115Z,91.10
2018-04-16T05:14:32.648Z,91.10
2018-04-16T05:16:59.221Z,91.00
2018-04-16T05:19:25.787Z,91.50
2018-04-16T05:21:52.695Z,90.90
2018-04-16T05:24:19.251Z,90.90
2018-04-16T05:26:45.820Z,90.70
2018-04-16T05:29:12.379Z,90.70
2018-04-16T05:31:39.324Z,91.40
2018-04-16T05:34:06.260Z,91.20
2018-04-16T05:36:32.804Z,91.20
2018-04-16T05:38:59.356Z,91.00
2018-04-16T05:41:25.920Z,91.30
2018-04-16T05:43:52.480Z,91.10
2018-04-16T05:46:19.460Z,91.00
2018-04-16T05:48:46.028Z,91.00
2018-04-16T05:51:12.555Z,91.00
2018-04-16T05:53:39.173Z,91.20
2018-04-16T05:56:06.107Z,91.30
2018-04-16T05:58:32.631Z,91.30
2018-04-16T06:00:59.192Z,91.70
2018-04-16T06:03:25.759Z,92.20
2018-04-16T06:05:52.287Z,92.30
2018-04-16T06:08:18.908Z,92.30
2018-04-16T06:10:45.478Z,92.90
2018-04-16T06:13:12.012Z,93.60
2018-04-16T06:15:38.576Z,93.60
2018-04-16T06:18:05.148Z,94.10
2018-04-16T06:20:32.060Z,94.60
2018-04-16T06:22:58.631Z,94.60
2018-04-16T06:25:25.257Z,94.60
2018-04-16T06:27:51.839Z,94.80
2018-04-16T06:30:18.453Z,94.10
2018-04-16T06:32:45.013Z,94.50
2018-04-16T06:35:11.613Z,94.00
2018-04-16T06:37:38.545Z,93.40
2018-04-16T06:40:05.119Z,93.40
2018-04-16T06:42:32.016Z,93.40
2018-04-16T06:44:58.588Z,93.40
2018-04-16T06:47:25.188Z,93.50
2018-04-16T06:49:51.720Z,93.40
2018-04-16T06:52:18.284Z,93.60
2018-04-16T06:54:44.845Z,93.30
2018-04-16T06:57:11.373Z,93.40
2018-04-16T06:59:37.942Z,93.30
2018-04-16T07:02:04.588Z,92.40
2018-04-16T07:04:31.134Z,92.70
2018-04-16T07:06:57.700Z,92.40
2018-04-16T07:09:24.310Z,92.60
2018-04-16T07:11:50.916Z,92.70
2018-04-16T07:14:17.484Z,92.60
2018-04-16T07:16:44.480Z,92.40
2018-04-16T07:19:11.091Z,92.40
2018-04-16T07:21:38.099Z,92.80
2018-04-16T07:24:04.764Z,92.80
2018-04-16T07:26:31.297Z,92.60
2018-04-16T07:28:57.864Z,93.20
2018-04-16T07:31:24.459Z,93.20
2018-04-16T07:33:50.991Z,93.50
2018-04-16T07:36:17.555Z,93.80
2018-04-16T07:38:44.121Z,94.10
2018-04-16T07:41:10.650Z,93.60
2018-04-16T07:43:37.211Z,93.70
2018-04-16T07:46:03.832Z,93.50
2018-04-16T07:48:30.368Z,93.90
2018-04-16T07:50:57.304Z,93.70
2018-04-16T07:53:23.876Z,93.80
2018-04-16T07:55:50.416Z,94.40
2018-04-16T07:58:17.352Z,94.10
2018-04-16T08:00:43.915Z,94.10
2018-04-16T08:03:10.820Z,94.60
2018-04-16T08:05:37.387Z,94.60
2018-04-16T08:08:03.956Z,94.20
2018-04-16T08:10:30.492Z,94.00
2018-04-16T08:12:57.108Z,94.30
2018-04-16T08:15:23.663Z,93.80
2018-04-16T08:17:50.204Z,93.70
2018-04-16T08:20:16.764Z,94.00
2018-04-16T08:22:43.339Z,93.80
2018-04-16T08:25:09.912Z,93.70
2018-04-16T08:27:36.502Z,93.00
2018-04-16T08:30:03.144Z,92.60
2018-04-16T08:32:29.760Z,92.20
2018-04-16T08:34:56.716Z,91.40
2018-04-16T08:37:23.657Z,91.30
2018-04-16T08:39:50.557Z,89.50
2018-04-16T08:42:17.142Z,89.50
2018-04-16T08:44:43.708Z,89.60
2018-04-16T08:47:10.252Z,89.60
2018-04-16T08:49:36.824Z,89.30
2018-04-16T08:52:03.411Z,89.70
2018-04-16T08:54:29.944Z,89.20
2018-04-16T08:56:56.513Z,88.50
2018-04-16T08:59:23.072Z,88.50
2018-04-16T09:01:49.652Z,88.90
2018-04-16T09:04:16.632Z,88.40
2018-04-16T09:06:43.192Z,88.40
2018-04-16T09:09:09.728Z,88.50
2018-04-16T09:11:36.288Z,88.70
2018-04-16T09:14:02.865Z,88.30
2018-04-16T09:16:29.449Z,88.50
2018-04-16T09:18:56.020Z,88.40
2018-04-16T09:21:22.584Z,88.20
2018-04-16T09:23:49.112Z,87.70
2018-04-16T09:26:22.536Z,88.20
2018-04-16T09:28:49.100Z,87.60
2018-04-16T09:31:15.705Z,87.30
2018-04-16T09:33:42.281Z,86.90
2018-04-16T09:36:08.861Z,87.10
2018-04-16T09:38:35.415Z,86.60
2018-04-16T09:41:01.993Z,87.10
2018-04-16T09:43:28.552Z,86.70
2018-04-16T09:45:55.081Z,85.70
2018-04-16T09:48:22.015Z,85.80
2018-04-16T09:50:48.957Z,85.50
2018-04-16T09:53:15.517Z,85.50
2018-04-16T09:55:42.081Z,85.70
2018-04-16T09:58:09.019Z,85.10
2018-04-16T10:00:41.644Z,85.10
2018-04-16T10:03:08.263Z,84.70
2018-04-16T10:05:35.224Z,84.30
2018-04-16T10:08:02.160Z,84.80
2018-04-16T10:10:28.719Z,84.80
2018-04-16T10:12:55.252Z,84.40
2018-04-16T10:15:21.832Z,84.50
2018-04-16T10:17:48.772Z,84.90
2018-04-16T10:20:15.301Z,84.90
2018-04-16T10:22:41.867Z,84.70
2018-04-16T10:25:08.427Z,84.70
2018-04-16T10:27:35.333Z,85.30
2018-04-16T10:30:01.928Z,85.30
2018-04-16T10:32:28.913Z,85.00
2018-04-16T10:34:55.496Z,85.00
2018-04-16T10:37:22.068Z,83.00
2018-04-16T10:39:48.673Z,83.80
2018-04-16T10:42:15.204Z,82.90
2018-04-16T10:44:41.768Z,82.90
2018-04-16T10:47:08.333Z,84.70
2018-04-16T10:49:34.871Z,84.10
2018-04-16T10:52:01.433Z,84.00
2018-04-16T10:54:28.001Z,84.00
2018-04-16T10:56:54.527Z,83.20
2018-04-16T10:59:21.092Z,84.60
2018-04-16T11:01:47.649Z,83.50
2018-04-16T11:04:14.603Z,80.80
2018-04-16T11:06:41.547Z,81.60
2018-04-16T11:09:08.401Z,81.70
2018-04-16T11:11:34.947Z,80.80
2018-04-16T11:14:01.564Z,80.90
2018-04-16T11:16:28.176Z,80.40
2018-04-16T11:18:54.716Z,80.00
2018-04-16T11:21:21.651Z,80.30
2018-04-16T11:23:48.224Z,80.30
2018-04-16T11:26:15.137Z,79.90
2018-04-16T11:28:41.703Z,79.90
2018-04-16T11:31:08.311Z,78.40
2018-04-16T11:33:34.944Z,79.70
2018-04-16T11:36:01.512Z,79.80
2018-04-16T11:38:28.079Z,77.10
2018-04-16T11:40:54.666Z,78.70
2018-04-16T11:43:21.602Z,78.70
2018-04-16T11:45:48.168Z,78.70
2018-04-16T11:48:14.717Z,79.90
2018-04-16T11:50:41.292Z,79.50
2018-04-16T11:53:07.913Z,77.60
2018-04-16T11:55:34.862Z,80.80
2018-04-16T11:58:01.836Z,81.90
2018-04-16T12:00:28.420Z,81.90
2018-04-16T12:02:54.956Z,82.30
2018-04-16T12:05:21.524Z,82.70
2018-04-16T12:07:48.147Z,82.90
2018-04-16T12:10:14.681Z,84.10
2018-04-16T12:12:41.275Z,85.40
2018-04-16T12:15:07.845Z,87.40
2018-04-16T12:17:34.771Z,90.40
2018-04-16T12:20:01.346Z,90.40
2018-04-16T12:22:27.920Z,90.70
2018-04-16T12:24:54.455Z,91.40
2018-04-16T12:27:21.395Z,91.10
2018-04-16T12:29:48.328Z,91.90
2018-04-16T12:32:14.981Z,91.90
2018-04-16T12:34:41.526Z,91.70
2018-04-16T12:37:08.098Z,90.40
2018-04-16T12:39:41.873Z,90.10
2018-04-16T12:42:08.448Z,90.20
2018-04-16T12:44:34.992Z,89.70
2018-04-16T12:47:01.564Z,89.60
2018-04-16T12:49:28.495Z,91.30
2018-04-16T12:51:55.044Z,91.30
2018-04-16T12:54:21.612Z,91.70
2018-04-16T12:56:48.552Z,94.10
2018-04-16T12:59:15.084Z,94.10
2018-04-16T13:01:41.659Z,94.90
2018-04-16T13:04:08.608Z,94.90
2018-04-16T13:06:35.140Z,95.00
2018-04-16T13:09:01.706Z,95.20
2018-04-16T13:11:28.649Z,93.80
2018-04-16T13:13:55.185Z,93.80
2018-04-16T13:16:21.793Z,94.00
2018-04-16T13:18:48.396Z,92.70
2018-04-16T13:21:14.953Z,93.50
2018-04-16T13:23:41.902Z,91.70
2018-04-16T13:26:08.472Z,91.70
2018-04-16T13:28:35.016Z,90.70
2018-04-16T13:31:01.948Z,90.70
2018-04-16T13:33:28.556Z,90.70
2018-04-16T13:35:55.100Z,90.60
2018-04-16T13:38:21.684Z,89.80
2018-04-16T13:40:48.256Z,91.50
2018-04-16T13:43:15.152Z,90.80
2018-04-16T13:45:41.768Z,90.80
2018-04-16T13:48:08.704Z,92.20
2018-04-16T13:50:35.280Z,92.20
2018-04-16T13:53:01.849Z,91.30
2018-04-16T13:55:28.417Z,91.40
2018-04-16T13:57:54.952Z,91.30
2018-04-16T14:00:21.532Z,91.40
2018-04-16T14:02:48.108Z,91.30
2018-04-16T14:05:14.640Z,92.60
2018-04-16T14:07:41.212Z,92.60
2018-04-16T14:10:07.785Z,92.80
2018-04-16T14:12:34.328Z,93.20
2018-04-16T14:15:00.897Z,94.10
2018-04-16T14:17:27.460Z,94.60
2018-04-16T14:19:53.992Z,95.20
2018-04-16T14:22:20.565Z,96.50
2018-04-16T14:24:47.132Z,97.40
2018-04-16T14:27:14.033Z,97.70
2018-04-16T14:29:40.596Z,97.80
2018-04-16T14:32:07.231Z,98.00
2018-04-16T14:34:33.764Z,97.90
2018-04-16T14:37:00.328Z,97.00
2018-04-16T14:39:26.900Z,97.00
2018-04-16T14:41:53.458Z,96.40
2018-04-16T14:44:20.025Z,96.10
2018-04-16T14:46:46.963Z,95.50
2018-04-16T14:49:13.507Z,95.50
2018-04-16T14:51:40.072Z,96.20
2018-04-16T14:54:07.000Z,96.20
2018-04-16T14:56:33.552Z,96.20
2018-04-16T14:59:00.160Z,95.80
2018-04-16T15:01:26.731Z,95.40
2018-04-16T15:03:53.316Z,95.10
2018-04-16T15:06:20.289Z,94.50
2018-04-16T15:08:46.856Z,94.50
2018-04-16T15:11:13.401Z,93.80
2018-04-16T15:13:40.032Z,94.00
2018-04-16T15:16:06.621Z,93.40
2018-04-16T15:18:33.208Z,94.60
2018-04-16T15:21:00.160Z,93.70
2018-04-16T15:23:27.105Z,94.10
2018-04-16T15:25:53.684Z,94.10
2018-04-16T15:28:20.324Z,94.20
2018-04-16T15:30:47.273Z,93.40
2018-04-16T15:33:14.236Z,93.60
2018-04-16T15:35:41.168Z,92.90
2018-04-16T15:38:07.741Z,92.90
2018-04-16T15:40:34.292Z,93.10
2018-04-16T15:43:01.502Z,92.90
2018-04-16T15:45:28.404Z,92.90
2018-04-16T15:47:55.433Z,92.70
2018-04-16T15:50:22.015Z,92.70
2018-04-16T15:52:48.975Z,93.40
2018-04-16T15:55:15.999Z,93.30
2018-04-16T15:57:42.958Z,91.90
2018-04-16T16:00:09.538Z,91.90
2018-04-16T16:02:36.085Z,91.80
2018-04-16T16:05:02.713Z,92.40
2018-04-16T16:07:29.288Z,92.30
2018-04-16T16:09:55.824Z,92.80
2018-04-16T16:12:22.767Z,91.60
2018-04-16T16:14:49.740Z,91.30
2018-04-16T16:17:16.279Z,91.30
2018-04-16T16:19:43.229Z,90.80
2018-04-16T16:22:10.168Z,91.30
2018-04-16T16:24:36.704Z,91.30
2018-04-16T16:27:03.281Z,91.80
2018-04-16T16:29:30.216Z,92.40
2018-04-16T16:31:56.761Z,92.40
2018-04-16T16:34:23.764Z,93.10
2018-04-16T16:36:50.339Z,93.10
2018-04-16T16:39:16.880Z,92.70
2018-04-16T16:41:43.451Z,92.50
2018-04-16T16:44:10.051Z,92.00
2018-04-16T16:46:36.801Z,91.20
2018-04-16T16:49:03.384Z,91.50
2018-04-16T16:51:29.992Z,92.00
2018-04-16T16:53:56.532Z,92.60
2018-04-16T16:56:23.468Z,93.10
2018-04-16T16:58:50.040Z,93.10
2018-04-16T17:01:16.967Z,93.00
2018-04-16T17:03:43.601Z,93.00
2018-04-16T17:06:10.247Z,93.60
2018-04-16T17:08:36.844Z,94.00
2018-04-16T17:11:03.428Z,92.60
2018-04-16T17:13:30.001Z,93.10
2018-04-16T17:15:56.543Z,93.30
2018-04-16T17:18:23.105Z,92.80
2018-04-16T17:20:49.681Z,93.30
2018-04-16T17:23:16.585Z,93.70
2018-04-16T17:25:43.203Z,93.70
2018-04-16T17:28:09.768Z,92.90
2018-04-16T17:30:36.303Z,92.30
2018-04-16T17:33:02.936Z,92.60
2018-04-16T17:35:29.513Z,92.50
2018-04-16T17:37:56.059Z,92.60
2018-04-16T17:40:22.628Z,92.20
2018-04-16T17:42:49.212Z,92.00
2018-04-16T17:45:16.176Z,92.10
2018-04-16T17:47:43.324Z,92.50
2018-04-16T17:50:09.892Z,92.60
2018-04-16T17:52:36.449Z,92.90
2018-04-16T17:55:03.103Z,92.40
2018-04-16T17:57:29.712Z,92.50
2018-04-16T17:59:56.620Z,92.10
2018-04-16T18:02:23.201Z,92.10
2018-04-16T18:04:49.776Z,92.00
2018-04-16T18:07:16.702Z,92.40
2018-04-16T18:09:43.281Z,92.40
2018-04-16T18:12:10.232Z,93.10
2018-04-16T18:14:37.171Z,93.10
2018-04-16T18:17:03.769Z,93.10
2018-04-16T18:19:30.337Z,93.20
2018-04-16T18:21:56.888Z,92.90
2018-04-16T18:24:23.508Z,92.90
2018-04-16T18:26:50.083Z,92.50
2018-04-16T18:29:16.641Z,92.60
2018-04-16T18:31:43.248Z,92.70
2018-04-16T18:34:09.861Z,93.20
2018-04-16T18:36:36.405Z,93.10
2018-04-16T18:39:03.104Z,93.40
2018-04-16T18:41:29.722Z,93.80
2018-04-16T18:43:56.628Z,94.00
2018-04-16T18:46:23.216Z,94.00
2018-04-16T18:48:49.788Z,94.00
2018-04-16T18:51:16.340Z,94.40
2018-04-16T18:53:42.931Z,94.60
2018-04-16T18:56:09.503Z,94.70
2018-04-16T18:58:36.054Z,94.80
2018-04-16T19:01:02.712Z,94.70
2018-04-16T19:03:30.206Z,94.80
2018-04-16T19:05:56.757Z,94.80
2018-04-16T19:08:23.333Z,94.80
2018-04-16T19:10:49.896Z,94.80
2018-04-16T19:13:16.433Z,94.90
2018-04-16T19:15:43.057Z,94.90
2018-04-16T19:18:09.629Z,94.90
2018-04-16T19:20:42.193Z,95.00
2018-04-16T19:23:08.763Z,95.00
2018-04-16T19:25:35.308Z,95.10
2018-04-16T19:28:08.040Z,95.20
2018-04-16T19:30:34.984Z,95.50
2018-04-16T19:33:07.949Z,95.50
2018-04-16T19:35:34.584Z,95.50
2018-04-16T19:38:01.132Z,95.80
2018-04-16T19:40:27.727Z,95.70
2018-04-16T19:42:55.129Z,95.70
2018-04-16T19:45:21.673Z,95.70
2018-04-16T19:47:48.236Z,95.80
2018-04-16T19:50:14.816Z,95.90
2018-04-16T19:52:41.652Z,95.70
2018-04-16T19:55:08.221Z,95.70
2018-04-16T19:57:41.537Z,95.60
2018-04-16T20:00:08.137Z,95.80
2018-04-16T20:02:41.819Z,95.70
2018-04-16T20:05:08.801Z,95.80
2018-04-16T20:07:35.367Z,95.80
2018-04-16T20:10:03.018Z,95.70
2018-04-16T20:12:29.592Z,95.60
2018-04-16T20:14:57.261Z,95.60
2018-04-16T20:17:23.899Z,95.70
2018-04-16T20:19:57.400Z,95.60
2018-04-16T20:22:23.976Z,95.60
2018-04-16T20:24:50.601Z,95.40
2018-04-16T20:27:17.524Z,95.60
2018-04-16T20:29:44.100Z,95.60
2018-04-16T20:32:10.713Z,95.50
2018-04-16T20:34:37.367Z,95.30
2018-04-16T20:37:03.984Z,95.30
2018-04-16T20:39:30.511Z,95.20
2018-04-16T20:41:57.081Z,94.80
2018-04-16T20:44:23.653Z,94.70
2018-04-16T20:46:50.199Z,94.80
2018-04-16T20:49:16.797Z,95.40
2018-04-16T20:51:43.368Z,95.50
2018-04-16T20:54:09.909Z,95.40
2018-04-16T20:56:36.480Z,95.60
2018-04-16T20:59:03.155Z,95.50
2018-04-16T21:01:30.063Z,95.80
2018-04-16T21:03:56.637Z,95.80
2018-04-16T21:06:23.204Z,95.50
2018-04-16T21:08:50.099Z,94.90
2018-04-16T21:11:16.664Z,94.90
2018-04-16T21:13:43.228Z,95.20
2018-04-16T21:16:09.764Z,95.10
2018-04-16T21:18:36.352Z,95.40
2018-04-16T21:21:03.300Z,95.40
2018-04-16T21:23:29.841Z,95.40
2018-04-16T21:25:56.804Z,95.10
2018-04-16T21:28:23.743Z,95.20
2018-04-16T21:30:50.284Z,95.20
2018-04-16T21:33:16.844Z,95.00
2018-04-16T21:35:43.448Z,95.10
2018-04-16T21:38:09.987Z,95.30
2018-04-16T21:40:36.596Z,95.40
2018-04-16T21:43:03.616Z,95.40
2018-04-16T21:45:30.224Z,95.40
2018-04-16T21:47:57.155Z,95.30
2018-04-16T21:50:23.720Z,95.30
2018-04-16T21:52:50.636Z,95.00
2018-04-16T21:55:17.219Z,95.00
2018-04-16T21:57:44.158Z,95.60
2018-04-16T22:00:11.608Z,95.60
2018-04-16T22:02:38.190Z,95.10
2018-04-16T22:05:05.132Z,95.80
2018-04-16T22:07:31.672Z,95.80
2018-04-16T22:09:58.245Z,95.60
2018-04-16T22:12:25.188Z,95.60
2018-04-16T22:14:51.721Z,95.60
2018-04-16T22:17:18.284Z,95.80
2018-04-16T22:19:45.225Z,95.60
2018-04-16T22:22:11.763Z,95.70
2018-04-16T22:24:38.337Z,95.60
2018-04-16T22:27:05.276Z,95.30
2018-04-16T22:29:31.808Z,95.30
2018-04-16T22:31:58.376Z,94.90
2018-04-16T22:34:24.995Z,95.10
2018-04-16T22:36:51.565Z,95.10
2018-04-16T22:39:18.128Z,95.20
2018-04-16T22:41:44.696Z,95.30
2018-04-16T22:44:11.613Z,95.30
2018-04-16T22:46:38.219Z,95.30
2018-04-16T22:49:04.836Z,95.20
2018-04-16T22:51:31.796Z,95.30
2018-04-16T22:53:58.733Z,95.30
2018-04-16T22:56:25.302Z,95.30
2018-04-16T22:58:52.199Z,95.40
2018-04-16T23:01:18.873Z,95.40
2018-04-16T23:03:45.453Z,95.30
2018-04-16T23:06:12.363Z,95.80
2018-04-16T23:08:38.955Z,95.80
2018-04-16T23:11:05.891Z,95.10
2018-04-16T23:13:32.417Z,95.10
2018-04-16T23:15:59.001Z,95.10
2018-04-16T23:18:25.939Z,95.30
2018-04-16T23:20:52.464Z,95.30
2018-04-16T23:23:19.027Z,95.30
2018-04-16T23:25:45.600Z,95.30
2018-04-16T23:28:12.499Z,95.20
2018-04-16T23:30:39.062Z,95.20
2018-04-16T23:33:05.616Z,95.10
2018-04-16T23:35:32.212Z,95.20
2018-04-16T23:37:59.144Z,95.50
2018-04-16T23:40:25.712Z,95.60
2018-04-16T23:42:52.625Z,95.10
2018-04-16T23:45:19.192Z,95.10
2018-04-16T23:47:45.764Z,95.00
2018-04-16T23:50:12.666Z,95.10
2018-04-16T23:52:39.250Z,95.10
2018-04-16T23:55:06.192Z,95.20
2018-04-16T23:57:32.715Z,95.20
2018-04-16T23:59:59.275Z,95.30
